sensor_id;sensor_type;location;lat;lon;timestamp;P1;durP1;ratioP1;P2;durP2;ratioP2
23310;SDS011;11828;51.508;18.118;2023-05-02T00:00:45;18.70;;;8.30;;
23310;SDS011;11828;51.508;18.118;2023-05-02T00:03:15;18.20;;;8.60;;
23310;SDS011;11828;51.508;18.118;2023-05-02T00:05:42;16.95;;;9.40;;
23310;SDS011;11828;51.508;18.118;2023-05-02T00:08:08;21.17;;;9.32;;
23310;SDS011;11828;51.508;18.118;2023-05-02T00:10:34;19.95;;;8.40;;
23310;SDS011;11828;51.508;18.118;2023-05-02T00:13:00;22.27;;;8.60;;
23310;SDS011;11828;51.508;18.118;2023-05-02T00:15:26;15.05;;;7.82;;
23310;SDS011;11828;51.508;18.118;2023-05-02T00:17:52;17.92;;;7.72;;
23310;SDS011;11828;51.508;18.118;2023-05-02T00:20:19;16.65;;;7.35;;
23310;SDS011;11828;51.508;18.118;2023-05-02T00:22:45;15.05;;;7.35;;
23310;SDS011;11828;51.508;18.118;2023-05-02T00:25:11;32.50;;;8.77;;
23310;SDS011;11828;51.508;18.118;2023-05-02T00:27:42;20.38;;;8.93;;
23310;SDS011;11828;51.508;18.118;2023-05-02T00:30:11;24.15;;;8.60;;
23310;SDS011;11828;51.508;18.118;2023-05-02T00:32:38;17.05;;;8.35;;
23310;SDS011;11828;51.508;18.118;2023-05-02T00:35:05;21.42;;;9.63;;
23310;SDS011;11828;51.508;18.118;2023-05-02T00:37:32;24.20;;;10.90;;
23310;SDS011;11828;51.508;18.118;2023-05-02T00:39:58;22.40;;;10.77;;
23310;SDS011;11828;51.508;18.118;2023-05-02T00:42:24;24.88;;;10.13;;
23310;SDS011;11828;51.508;18.118;2023-05-02T00:44:50;22.98;;;9.77;;
23310;SDS011;11828;51.508;18.118;2023-05-02T00:47:16;20.25;;;9.00;;
23310;SDS011;11828;51.508;18.118;2023-05-02T00:49:42;20.38;;;9.55;;
23310;SDS011;11828;51.508;18.118;2023-05-02T00:52:08;28.60;;;10.90;;
23310;SDS011;11828;51.508;18.118;2023-05-02T00:54:36;24.77;;;10.68;;
23310;SDS011;11828;51.508;18.118;2023-05-02T00:57:03;18.73;;;9.55;;
23310;SDS011;11828;51.508;18.118;2023-05-02T00:59:30;18.27;;;8.57;;
23310;SDS011;11828;51.508;18.118;2023-05-02T01:02:00;16.38;;;9.82;;
23310;SDS011;11828;51.508;18.118;2023-05-02T01:05:43;21.40;;;10.88;;
23310;SDS011;11828;51.508;18.118;2023-05-02T01:13:52;27.40;;;13.50;;
23310;SDS011;11828;51.508;18.118;2023-05-02T01:16:22;20.75;;;12.82;;
23310;SDS011;11828;51.508;18.118;2023-05-02T01:18:49;24.60;;;14.70;;
23310;SDS011;11828;51.508;18.118;2023-05-02T01:21:17;23.65;;;18.27;;
23310;SDS011;11828;51.508;18.118;2023-05-02T01:24:04;29.05;;;16.88;;
23310;SDS011;11828;51.508;18.118;2023-05-02T01:29:32;24.42;;;16.27;;
23310;SDS011;11828;51.508;18.118;2023-05-02T01:31:59;27.23;;;17.60;;
23310;SDS011;11828;51.508;18.118;2023-05-02T01:34:27;23.27;;;17.33;;
23310;SDS011;11828;51.508;18.118;2023-05-02T01:36:56;42.90;;;22.08;;
23310;SDS011;11828;51.508;18.118;2023-05-02T01:39:23;30.75;;;22.15;;
23310;SDS011;11828;51.508;18.118;2023-05-02T01:41:52;29.48;;;21.63;;
23310;SDS011;11828;51.508;18.118;2023-05-02T01:44:21;27.08;;;21.45;;
23310;SDS011;11828;51.508;18.118;2023-05-02T01:46:49;36.40;;;24.90;;
23310;SDS011;11828;51.508;18.118;2023-05-02T01:49:17;29.58;;;25.73;;
23310;SDS011;11828;51.508;18.118;2023-05-02T01:51:46;47.70;;;30.25;;
23310;SDS011;11828;51.508;18.118;2023-05-02T01:54:15;41.67;;;36.33;;
23310;SDS011;11828;51.508;18.118;2023-05-02T01:56:42;34.60;;;31.23;;
23310;SDS011;11828;51.508;18.118;2023-05-02T01:59:11;35.35;;;31.88;;
23310;SDS011;11828;51.508;18.118;2023-05-02T02:01:41;49.25;;;30.65;;
23310;SDS011;11828;51.508;18.118;2023-05-02T02:04:10;35.92;;;32.15;;
23310;SDS011;11828;51.508;18.118;2023-05-02T02:06:38;30.35;;;24.52;;
23310;SDS011;11828;51.508;18.118;2023-05-02T02:09:10;32.58;;;24.63;;
23310;SDS011;11828;51.508;18.118;2023-05-02T02:11:40;28.20;;;24.08;;
23310;SDS011;11828;51.508;18.118;2023-05-02T02:14:15;31.88;;;23.77;;
23310;SDS011;11828;51.508;18.118;2023-05-02T02:16:47;28.70;;;21.02;;
23310;SDS011;11828;51.508;18.118;2023-05-02T02:19:20;26.92;;;20.58;;
23310;SDS011;11828;51.508;18.118;2023-05-02T02:21:47;40.40;;;24.63;;
23310;SDS011;11828;51.508;18.118;2023-05-02T02:24:15;27.92;;;19.30;;
23310;SDS011;11828;51.508;18.118;2023-05-02T02:26:45;33.22;;;29.70;;
23310;SDS011;11828;51.508;18.118;2023-05-02T02:29:11;38.78;;;34.72;;
23310;SDS011;11828;51.508;18.118;2023-05-02T02:31:38;33.20;;;29.38;;
23310;SDS011;11828;51.508;18.118;2023-05-02T02:34:04;34.58;;;30.85;;
23310;SDS011;11828;51.508;18.118;2023-05-02T02:42:40;35.67;;;30.08;;
23310;SDS011;11828;51.508;18.118;2023-05-02T02:48:18;40.40;;;35.08;;
23310;SDS011;11828;51.508;18.118;2023-05-02T02:56:39;48.50;;;43.38;;
23310;SDS011;11828;51.508;18.118;2023-05-02T03:01:53;59.35;;;46.30;;
23310;SDS011;11828;51.508;18.118;2023-05-02T03:04:31;51.13;;;45.55;;
23310;SDS011;11828;51.508;18.118;2023-05-02T03:07:00;45.72;;;40.83;;
23310;SDS011;11828;51.508;18.118;2023-05-02T03:09:27;38.08;;;34.00;;
23310;SDS011;11828;51.508;18.118;2023-05-02T03:11:57;47.63;;;40.65;;
23310;SDS011;11828;51.508;18.118;2023-05-02T03:14:24;45.47;;;40.78;;
23310;SDS011;11828;51.508;18.118;2023-05-02T03:16:50;45.72;;;40.60;;
23310;SDS011;11828;51.508;18.118;2023-05-02T03:19:16;54.25;;;46.42;;
23310;SDS011;11828;51.508;18.118;2023-05-02T03:21:42;54.90;;;48.47;;
23310;SDS011;11828;51.508;18.118;2023-05-02T03:24:09;60.88;;;43.47;;
23310;SDS011;11828;51.508;18.118;2023-05-02T03:26:35;68.68;;;48.35;;
23310;SDS011;11828;51.508;18.118;2023-05-02T03:29:02;64.22;;;39.70;;
23310;SDS011;11828;51.508;18.118;2023-05-02T03:31:27;56.92;;;44.05;;
23310;SDS011;11828;51.508;18.118;2023-05-02T03:33:54;50.67;;;45.40;;
23310;SDS011;11828;51.508;18.118;2023-05-02T03:36:20;48.00;;;43.22;;
23310;SDS011;11828;51.508;18.118;2023-05-02T03:38:46;51.08;;;44.88;;
23310;SDS011;11828;51.508;18.118;2023-05-02T03:41:14;59.22;;;50.72;;
23310;SDS011;11828;51.508;18.118;2023-05-02T03:43:40;62.25;;;52.20;;
23310;SDS011;11828;51.508;18.118;2023-05-02T03:46:07;64.68;;;54.88;;
23310;SDS011;11828;51.508;18.118;2023-05-02T03:48:35;77.13;;;56.42;;
23310;SDS011;11828;51.508;18.118;2023-05-02T03:51:02;64.75;;;54.05;;
23310;SDS011;11828;51.508;18.118;2023-05-02T03:53:30;59.45;;;50.60;;
23310;SDS011;11828;51.508;18.118;2023-05-02T03:55:56;59.35;;;50.95;;
23310;SDS011;11828;51.508;18.118;2023-05-02T03:58:23;50.13;;;45.00;;
23310;SDS011;11828;51.508;18.118;2023-05-02T04:00:49;57.53;;;49.85;;
23310;SDS011;11828;51.508;18.118;2023-05-02T04:03:18;52.42;;;46.72;;
23310;SDS011;11828;51.508;18.118;2023-05-02T04:05:45;60.60;;;52.88;;
23310;SDS011;11828;51.508;18.118;2023-05-02T04:08:11;55.67;;;49.75;;
23310;SDS011;11828;51.508;18.118;2023-05-02T04:10:37;54.10;;;48.13;;
23310;SDS011;11828;51.508;18.118;2023-05-02T04:13:04;55.42;;;48.83;;
23310;SDS011;11828;51.508;18.118;2023-05-02T04:15:30;55.53;;;49.67;;
23310;SDS011;11828;51.508;18.118;2023-05-02T04:17:57;50.08;;;44.67;;
23310;SDS011;11828;51.508;18.118;2023-05-02T04:20:23;53.97;;;48.20;;
23310;SDS011;11828;51.508;18.118;2023-05-02T04:22:49;53.42;;;47.80;;
23310;SDS011;11828;51.508;18.118;2023-05-02T04:25:16;50.03;;;44.67;;
23310;SDS011;11828;51.508;18.118;2023-05-02T04:27:43;55.70;;;49.47;;
23310;SDS011;11828;51.508;18.118;2023-05-02T04:30:09;55.35;;;49.28;;
23310;SDS011;11828;51.508;18.118;2023-05-02T04:32:36;50.35;;;44.95;;
23310;SDS011;11828;51.508;18.118;2023-05-02T04:35:03;51.03;;;45.42;;
23310;SDS011;11828;51.508;18.118;2023-05-02T04:37:30;33.28;;;29.50;;
23310;SDS011;11828;51.508;18.118;2023-05-02T04:39:56;33.38;;;29.92;;
23310;SDS011;11828;51.508;18.118;2023-05-02T04:42:23;29.67;;;26.60;;
23310;SDS011;11828;51.508;18.118;2023-05-02T04:44:49;26.35;;;23.52;;
23310;SDS011;11828;51.508;18.118;2023-05-02T04:47:15;26.70;;;21.95;;
23310;SDS011;11828;51.508;18.118;2023-05-02T04:49:42;25.20;;;21.55;;
23310;SDS011;11828;51.508;18.118;2023-05-02T04:52:08;25.30;;;17.92;;
23310;SDS011;11828;51.508;18.118;2023-05-02T04:54:35;27.08;;;18.50;;
23310;SDS011;11828;51.508;18.118;2023-05-02T04:57:01;25.73;;;17.35;;
23310;SDS011;11828;51.508;18.118;2023-05-02T04:59:28;26.10;;;14.40;;
23310;SDS011;11828;51.508;18.118;2023-05-02T05:01:55;27.60;;;12.57;;
23310;SDS011;11828;51.508;18.118;2023-05-02T05:04:21;21.38;;;10.43;;
23310;SDS011;11828;51.508;18.118;2023-05-02T05:06:49;22.98;;;10.68;;
23310;SDS011;11828;51.508;18.118;2023-05-02T05:09:15;30.40;;;10.35;;
23310;SDS011;11828;51.508;18.118;2023-05-02T05:11:41;29.05;;;10.48;;
23310;SDS011;11828;51.508;18.118;2023-05-02T05:14:08;27.58;;;10.35;;
23310;SDS011;11828;51.508;18.118;2023-05-02T05:16:34;22.67;;;8.70;;
23310;SDS011;11828;51.508;18.118;2023-05-02T05:19:01;24.13;;;8.60;;
23310;SDS011;11828;51.508;18.118;2023-05-02T05:21:28;17.73;;;7.20;;
23310;SDS011;11828;51.508;18.118;2023-05-02T05:23:55;15.07;;;6.80;;
23310;SDS011;11828;51.508;18.118;2023-05-02T05:26:21;17.50;;;8.18;;
23310;SDS011;11828;51.508;18.118;2023-05-02T05:28:49;18.50;;;8.85;;
23310;SDS011;11828;51.508;18.118;2023-05-02T05:31:15;20.95;;;9.02;;
23310;SDS011;11828;51.508;18.118;2023-05-02T05:33:42;19.20;;;8.02;;
23310;SDS011;11828;51.508;18.118;2023-05-02T05:36:09;17.50;;;7.68;;
23310;SDS011;11828;51.508;18.118;2023-05-02T05:38:38;20.15;;;7.88;;
23310;SDS011;11828;51.508;18.118;2023-05-02T05:41:05;21.75;;;8.10;;
23310;SDS011;11828;51.508;18.118;2023-05-02T05:43:32;18.50;;;7.10;;
23310;SDS011;11828;51.508;18.118;2023-05-02T05:45:58;16.08;;;7.22;;
23310;SDS011;11828;51.508;18.118;2023-05-02T05:48:24;29.98;;;8.70;;
23310;SDS011;11828;51.508;18.118;2023-05-02T05:50:51;19.33;;;7.32;;
23310;SDS011;11828;51.508;18.118;2023-05-02T05:53:17;18.50;;;7.22;;
23310;SDS011;11828;51.508;18.118;2023-05-02T05:55:44;19.60;;;7.32;;
23310;SDS011;11828;51.508;18.118;2023-05-02T05:58:10;17.92;;;7.00;;
23310;SDS011;11828;51.508;18.118;2023-05-02T06:00:37;22.58;;;7.30;;
23310;SDS011;11828;51.508;18.118;2023-05-02T06:03:04;27.52;;;7.80;;
23310;SDS011;11828;51.508;18.118;2023-05-02T06:05:31;22.35;;;7.38;;
23310;SDS011;11828;51.508;18.118;2023-05-02T06:07:57;20.75;;;7.05;;
23310;SDS011;11828;51.508;18.118;2023-05-02T06:10:24;18.48;;;6.82;;
23310;SDS011;11828;51.508;18.118;2023-05-02T06:12:50;17.52;;;6.82;;
23310;SDS011;11828;51.508;18.118;2023-05-02T06:15:17;22.42;;;7.80;;
23310;SDS011;11828;51.508;18.118;2023-05-02T06:17:43;18.27;;;7.65;;
23310;SDS011;11828;51.508;18.118;2023-05-02T06:20:09;18.80;;;7.45;;
23310;SDS011;11828;51.508;18.118;2023-05-02T06:22:35;25.23;;;8.70;;
23310;SDS011;11828;51.508;18.118;2023-05-02T06:25:02;23.98;;;8.73;;
23310;SDS011;11828;51.508;18.118;2023-05-02T06:27:29;19.58;;;7.75;;
23310;SDS011;11828;51.508;18.118;2023-05-02T06:29:56;17.88;;;7.70;;
23310;SDS011;11828;51.508;18.118;2023-05-02T06:32:22;16.73;;;7.35;;
23310;SDS011;11828;51.508;18.118;2023-05-02T06:34:48;21.25;;;7.70;;
23310;SDS011;11828;51.508;18.118;2023-05-02T06:37:14;21.38;;;7.30;;
23310;SDS011;11828;51.508;18.118;2023-05-02T06:39:40;19.08;;;7.32;;
23310;SDS011;11828;51.508;18.118;2023-05-02T06:42:07;20.55;;;7.35;;
23310;SDS011;11828;51.508;18.118;2023-05-02T06:44:33;20.17;;;7.13;;
23310;SDS011;11828;51.508;18.118;2023-05-02T06:46:59;17.30;;;6.85;;
23310;SDS011;11828;51.508;18.118;2023-05-02T06:49:25;26.85;;;7.93;;
23310;SDS011;11828;51.508;18.118;2023-05-02T06:51:51;30.25;;;8.32;;
23310;SDS011;11828;51.508;18.118;2023-05-02T06:54:18;29.38;;;9.82;;
23310;SDS011;11828;51.508;18.118;2023-05-02T06:56:45;23.77;;;8.52;;
23310;SDS011;11828;51.508;18.118;2023-05-02T06:59:12;22.67;;;8.50;;
23310;SDS011;11828;51.508;18.118;2023-05-02T07:01:40;26.55;;;9.18;;
23310;SDS011;11828;51.508;18.118;2023-05-02T07:04:08;30.23;;;8.82;;
23310;SDS011;11828;51.508;18.118;2023-05-02T07:06:34;19.90;;;8.23;;
23310;SDS011;11828;51.508;18.118;2023-05-02T07:09:00;22.17;;;7.97;;
23310;SDS011;11828;51.508;18.118;2023-05-02T07:11:26;25.67;;;8.13;;
23310;SDS011;11828;51.508;18.118;2023-05-02T07:13:53;25.58;;;8.43;;
23310;SDS011;11828;51.508;18.118;2023-05-02T07:16:19;18.83;;;8.45;;
23310;SDS011;11828;51.508;18.118;2023-05-02T07:18:45;22.50;;;7.75;;
23310;SDS011;11828;51.508;18.118;2023-05-02T07:21:11;24.40;;;8.40;;
23310;SDS011;11828;51.508;18.118;2023-05-02T07:23:38;23.35;;;8.07;;
23310;SDS011;11828;51.508;18.118;2023-05-02T07:26:04;26.38;;;8.30;;
23310;SDS011;11828;51.508;18.118;2023-05-02T07:28:30;18.17;;;7.68;;
23310;SDS011;11828;51.508;18.118;2023-05-02T07:30:56;20.23;;;8.05;;
23310;SDS011;11828;51.508;18.118;2023-05-02T07:33:23;19.45;;;7.85;;
23310;SDS011;11828;51.508;18.118;2023-05-02T07:35:49;21.52;;;8.43;;
23310;SDS011;11828;51.508;18.118;2023-05-02T07:38:16;18.85;;;7.38;;
23310;SDS011;11828;51.508;18.118;2023-05-02T07:40:42;21.77;;;8.15;;
23310;SDS011;11828;51.508;18.118;2023-05-02T07:43:10;22.08;;;7.82;;
23310;SDS011;11828;51.508;18.118;2023-05-02T07:45:38;38.25;;;9.90;;
23310;SDS011;11828;51.508;18.118;2023-05-02T07:48:04;18.90;;;8.05;;
23310;SDS011;11828;51.508;18.118;2023-05-02T07:50:30;20.30;;;8.63;;
23310;SDS011;11828;51.508;18.118;2023-05-02T07:52:56;20.27;;;8.40;;
23310;SDS011;11828;51.508;18.118;2023-05-02T07:55:22;21.13;;;8.63;;
23310;SDS011;11828;51.508;18.118;2023-05-02T07:57:51;22.75;;;8.00;;
23310;SDS011;11828;51.508;18.118;2023-05-02T08:00:17;29.23;;;9.30;;
23310;SDS011;11828;51.508;18.118;2023-05-02T08:02:44;15.85;;;7.85;;
23310;SDS011;11828;51.508;18.118;2023-05-02T08:05:10;20.20;;;7.95;;
23310;SDS011;11828;51.508;18.118;2023-05-02T08:07:37;24.05;;;8.02;;
23310;SDS011;11828;51.508;18.118;2023-05-02T08:10:03;23.00;;;7.60;;
23310;SDS011;11828;51.508;18.118;2023-05-02T08:12:31;16.77;;;7.75;;
23310;SDS011;11828;51.508;18.118;2023-05-02T08:14:57;19.42;;;8.10;;
23310;SDS011;11828;51.508;18.118;2023-05-02T08:17:23;20.52;;;8.48;;
23310;SDS011;11828;51.508;18.118;2023-05-02T08:19:49;18.00;;;7.43;;
23310;SDS011;11828;51.508;18.118;2023-05-02T08:22:16;21.20;;;7.60;;
23310;SDS011;11828;51.508;18.118;2023-05-02T08:24:42;17.80;;;7.57;;
23310;SDS011;11828;51.508;18.118;2023-05-02T08:27:08;20.75;;;7.28;;
23310;SDS011;11828;51.508;18.118;2023-05-02T08:29:34;18.98;;;7.00;;
23310;SDS011;11828;51.508;18.118;2023-05-02T08:32:00;16.05;;;6.05;;
23310;SDS011;11828;51.508;18.118;2023-05-02T08:34:26;19.13;;;6.88;;
23310;SDS011;11828;51.508;18.118;2023-05-02T08:36:52;19.45;;;6.70;;
23310;SDS011;11828;51.508;18.118;2023-05-02T08:39:18;20.88;;;7.43;;
23310;SDS011;11828;51.508;18.118;2023-05-02T08:41:45;24.98;;;7.13;;
23310;SDS011;11828;51.508;18.118;2023-05-02T08:44:11;20.23;;;7.38;;
23310;SDS011;11828;51.508;18.118;2023-05-02T08:46:39;21.38;;;7.03;;
23310;SDS011;11828;51.508;18.118;2023-05-02T08:49:07;21.67;;;6.57;;
23310;SDS011;11828;51.508;18.118;2023-05-02T08:51:36;26.77;;;7.28;;
23310;SDS011;11828;51.508;18.118;2023-05-02T08:54:02;23.30;;;7.38;;
23310;SDS011;11828;51.508;18.118;2023-05-02T08:56:32;15.25;;;6.75;;
23310;SDS011;11828;51.508;18.118;2023-05-02T08:58:58;16.15;;;6.88;;
23310;SDS011;11828;51.508;18.118;2023-05-02T09:01:26;13.02;;;5.85;;
23310;SDS011;11828;51.508;18.118;2023-05-02T09:03:55;16.10;;;6.05;;
23310;SDS011;11828;51.508;18.118;2023-05-02T09:06:24;20.38;;;7.28;;
23310;SDS011;11828;51.508;18.118;2023-05-02T09:08:51;14.77;;;6.20;;
23310;SDS011;11828;51.508;18.118;2023-05-02T09:11:18;14.70;;;6.00;;
23310;SDS011;11828;51.508;18.118;2023-05-02T09:13:46;13.15;;;5.55;;
23310;SDS011;11828;51.508;18.118;2023-05-02T09:16:18;14.57;;;6.63;;
23310;SDS011;11828;51.508;18.118;2023-05-02T09:18:47;17.58;;;7.18;;
23310;SDS011;11828;51.508;18.118;2023-05-02T09:21:39;11.40;;;6.00;;
23310;SDS011;11828;51.508;18.118;2023-05-02T09:24:18;17.77;;;6.40;;
23310;SDS011;11828;51.508;18.118;2023-05-02T09:26:56;17.30;;;5.90;;
23310;SDS011;11828;51.508;18.118;2023-05-02T09:29:26;9.93;;;5.32;;
23310;SDS011;11828;51.508;18.118;2023-05-02T09:31:55;9.20;;;5.10;;
23310;SDS011;11828;51.508;18.118;2023-05-02T09:34:21;8.65;;;5.13;;
23310;SDS011;11828;51.508;18.118;2023-05-02T09:36:49;9.15;;;4.70;;
23310;SDS011;11828;51.508;18.118;2023-05-02T09:39:21;24.02;;;7.18;;
23310;SDS011;11828;51.508;18.118;2023-05-02T09:41:56;10.75;;;5.18;;
23310;SDS011;11828;51.508;18.118;2023-05-02T09:44:24;13.23;;;5.22;;
23310;SDS011;11828;51.508;18.118;2023-05-02T09:46:54;16.13;;;5.38;;
23310;SDS011;11828;51.508;18.118;2023-05-02T09:49:39;11.85;;;5.07;;
23310;SDS011;11828;51.508;18.118;2023-05-02T09:52:13;13.02;;;4.68;;
23310;SDS011;11828;51.508;18.118;2023-05-02T09:54:41;10.60;;;4.93;;
23310;SDS011;11828;51.508;18.118;2023-05-02T09:57:08;11.73;;;4.60;;
23310;SDS011;11828;51.508;18.118;2023-05-02T09:59:35;11.48;;;4.80;;
23310;SDS011;11828;51.508;18.118;2023-05-02T10:02:02;11.63;;;5.32;;
23310;SDS011;11828;51.508;18.118;2023-05-02T10:04:32;11.27;;;5.15;;
23310;SDS011;11828;51.508;18.118;2023-05-02T10:06:59;17.58;;;5.60;;
23310;SDS011;11828;51.508;18.118;2023-05-02T10:09:28;11.23;;;4.95;;
23310;SDS011;11828;51.508;18.118;2023-05-02T10:11:59;17.45;;;5.65;;
23310;SDS011;11828;51.508;18.118;2023-05-02T10:14:29;8.23;;;4.55;;
23310;SDS011;11828;51.508;18.118;2023-05-02T10:17:04;10.55;;;4.82;;
23310;SDS011;11828;51.508;18.118;2023-05-02T10:19:38;11.25;;;4.55;;
23310;SDS011;11828;51.508;18.118;2023-05-02T10:22:14;12.45;;;4.82;;
23310;SDS011;11828;51.508;18.118;2023-05-02T10:24:45;9.57;;;4.60;;
23310;SDS011;11828;51.508;18.118;2023-05-02T10:27:15;10.27;;;4.78;;
23310;SDS011;11828;51.508;18.118;2023-05-02T10:29:41;10.65;;;4.03;;
23310;SDS011;11828;51.508;18.118;2023-05-02T10:32:08;10.38;;;4.68;;
23310;SDS011;11828;51.508;18.118;2023-05-02T10:34:35;14.57;;;4.90;;
23310;SDS011;11828;51.508;18.118;2023-05-02T10:37:04;9.82;;;4.13;;
23310;SDS011;11828;51.508;18.118;2023-05-02T10:39:30;11.68;;;4.43;;
23310;SDS011;11828;51.508;18.118;2023-05-02T10:41:57;8.13;;;4.00;;
23310;SDS011;11828;51.508;18.118;2023-05-02T10:44:36;9.95;;;4.43;;
23310;SDS011;11828;51.508;18.118;2023-05-02T10:52:30;12.77;;;4.78;;
23310;SDS011;11828;51.508;18.118;2023-05-02T10:55:23;9.75;;;4.32;;
23310;SDS011;11828;51.508;18.118;2023-05-02T11:00:26;8.85;;;4.22;;
23310;SDS011;11828;51.508;18.118;2023-05-02T11:02:58;8.15;;;4.07;;
23310;SDS011;11828;51.508;18.118;2023-05-02T11:05:25;10.43;;;4.60;;
23310;SDS011;11828;51.508;18.118;2023-05-02T11:08:34;9.43;;;4.50;;
23310;SDS011;11828;51.508;18.118;2023-05-02T11:10:44;12.25;;;4.65;;
23310;SDS011;11828;51.508;18.118;2023-05-02T11:13:10;11.68;;;4.43;;
23310;SDS011;11828;51.508;18.118;2023-05-02T11:18:09;14.35;;;5.32;;
23310;SDS011;11828;51.508;18.118;2023-05-02T11:20:40;12.43;;;4.50;;
23310;SDS011;11828;51.508;18.118;2023-05-02T11:25:40;6.77;;;3.77;;
23310;SDS011;11828;51.508;18.118;2023-05-02T11:31:52;8.75;;;4.20;;
23310;SDS011;11828;51.508;18.118;2023-05-02T11:33:56;7.55;;;4.00;;
23310;SDS011;11828;51.508;18.118;2023-05-02T11:36:30;8.60;;;3.90;;
23310;SDS011;11828;51.508;18.118;2023-05-02T11:38:59;7.88;;;3.90;;
23310;SDS011;11828;51.508;18.118;2023-05-02T11:41:38;12.80;;;4.43;;
23310;SDS011;11828;51.508;18.118;2023-05-02T11:44:06;12.45;;;4.55;;
23310;SDS011;11828;51.508;18.118;2023-05-02T11:46:32;10.45;;;4.57;;
23310;SDS011;11828;51.508;18.118;2023-05-02T11:49:03;10.80;;;4.75;;
23310;SDS011;11828;51.508;18.118;2023-05-02T11:51:30;9.15;;;4.28;;
23310;SDS011;11828;51.508;18.118;2023-05-02T11:53:56;10.18;;;4.40;;
23310;SDS011;11828;51.508;18.118;2023-05-02T11:56:23;10.10;;;4.60;;
23310;SDS011;11828;51.508;18.118;2023-05-02T11:59:00;15.00;;;5.07;;
23310;SDS011;11828;51.508;18.118;2023-05-02T12:01:27;8.90;;;4.57;;
23310;SDS011;11828;51.508;18.118;2023-05-02T12:04:05;9.52;;;4.57;;
23310;SDS011;11828;51.508;18.118;2023-05-02T12:06:32;11.35;;;4.78;;
23310;SDS011;11828;51.508;18.118;2023-05-02T12:09:09;9.38;;;4.70;;
23310;SDS011;11828;51.508;18.118;2023-05-02T12:11:40;11.77;;;5.00;;
23310;SDS011;11828;51.508;18.118;2023-05-02T12:14:06;11.60;;;4.88;;
23310;SDS011;11828;51.508;18.118;2023-05-02T12:16:32;12.30;;;4.70;;
23310;SDS011;11828;51.508;18.118;2023-05-02T12:18:59;13.60;;;5.03;;
23310;SDS011;11828;51.508;18.118;2023-05-02T12:21:26;8.02;;;4.35;;
23310;SDS011;11828;51.508;18.118;2023-05-02T12:23:54;11.90;;;5.28;;
23310;SDS011;11828;51.508;18.118;2023-05-02T12:26:22;8.07;;;4.57;;
23310;SDS011;11828;51.508;18.118;2023-05-02T12:28:50;12.65;;;4.97;;
23310;SDS011;11828;51.508;18.118;2023-05-02T12:31:18;10.70;;;4.75;;
23310;SDS011;11828;51.508;18.118;2023-05-02T12:33:45;12.25;;;4.97;;
23310;SDS011;11828;51.508;18.118;2023-05-02T12:36:19;14.05;;;5.50;;
23310;SDS011;11828;51.508;18.118;2023-05-02T12:41:17;11.93;;;4.95;;
23310;SDS011;11828;51.508;18.118;2023-05-02T12:43:54;12.73;;;5.15;;
23310;SDS011;11828;51.508;18.118;2023-05-02T12:46:20;12.52;;;5.22;;
23310;SDS011;11828;51.508;18.118;2023-05-02T12:48:47;10.95;;;5.10;;
23310;SDS011;11828;51.508;18.118;2023-05-02T12:51:33;10.60;;;4.82;;
23310;SDS011;11828;51.508;18.118;2023-05-02T12:54:01;12.18;;;4.75;;
23310;SDS011;11828;51.508;18.118;2023-05-02T12:56:28;7.63;;;4.45;;
23310;SDS011;11828;51.508;18.118;2023-05-02T12:58:59;9.88;;;4.93;;
23310;SDS011;11828;51.508;18.118;2023-05-02T13:01:25;9.32;;;4.68;;
23310;SDS011;11828;51.508;18.118;2023-05-02T13:03:52;13.55;;;5.88;;
23310;SDS011;11828;51.508;18.118;2023-05-02T13:06:19;9.30;;;5.10;;
23310;SDS011;11828;51.508;18.118;2023-05-02T13:08:45;9.15;;;4.78;;
23310;SDS011;11828;51.508;18.118;2023-05-02T13:11:11;8.68;;;4.75;;
23310;SDS011;11828;51.508;18.118;2023-05-02T13:13:38;7.78;;;4.68;;
23310;SDS011;11828;51.508;18.118;2023-05-02T13:16:04;9.45;;;4.68;;
23310;SDS011;11828;51.508;18.118;2023-05-02T13:18:32;7.22;;;4.35;;
23310;SDS011;11828;51.508;18.118;2023-05-02T13:20:58;9.43;;;4.70;;
23310;SDS011;11828;51.508;18.118;2023-05-02T13:23:24;13.15;;;5.40;;
23310;SDS011;11828;51.508;18.118;2023-05-02T13:25:50;8.95;;;4.63;;
23310;SDS011;11828;51.508;18.118;2023-05-02T13:28:16;10.88;;;5.13;;
23310;SDS011;11828;51.508;18.118;2023-05-02T13:30:43;9.48;;;5.03;;
23310;SDS011;11828;51.508;18.118;2023-05-02T13:33:09;8.25;;;4.47;;
23310;SDS011;11828;51.508;18.118;2023-05-02T13:35:35;9.43;;;4.50;;
23310;SDS011;11828;51.508;18.118;2023-05-02T13:38:02;12.55;;;5.03;;
23310;SDS011;11828;51.508;18.118;2023-05-02T13:40:28;8.63;;;4.70;;
23310;SDS011;11828;51.508;18.118;2023-05-02T13:42:54;8.32;;;4.38;;
23310;SDS011;11828;51.508;18.118;2023-05-02T13:45:20;8.68;;;4.25;;
23310;SDS011;11828;51.508;18.118;2023-05-02T13:47:46;8.02;;;4.15;;
23310;SDS011;11828;51.508;18.118;2023-05-02T13:50:13;9.85;;;4.45;;
23310;SDS011;11828;51.508;18.118;2023-05-02T13:52:39;13.15;;;5.10;;
23310;SDS011;11828;51.508;18.118;2023-05-02T13:55:05;9.40;;;4.63;;
23310;SDS011;11828;51.508;18.118;2023-05-02T13:57:31;12.68;;;6.60;;
23310;SDS011;11828;51.508;18.118;2023-05-02T13:59:57;15.52;;;7.30;;
23310;SDS011;11828;51.508;18.118;2023-05-02T14:02:24;12.63;;;5.70;;
23310;SDS011;11828;51.508;18.118;2023-05-02T14:04:50;9.35;;;4.82;;
23310;SDS011;11828;51.508;18.118;2023-05-02T14:07:16;6.93;;;4.00;;
23310;SDS011;11828;51.508;18.118;2023-05-02T14:09:43;9.85;;;4.80;;
23310;SDS011;11828;51.508;18.118;2023-05-02T14:12:09;9.40;;;4.88;;
23310;SDS011;11828;51.508;18.118;2023-05-02T14:14:35;26.80;;;16.55;;
23310;SDS011;11828;51.508;18.118;2023-05-02T14:17:02;25.50;;;13.57;;
23310;SDS011;11828;51.508;18.118;2023-05-02T14:19:29;13.98;;;8.20;;
23310;SDS011;11828;51.508;18.118;2023-05-02T14:21:55;13.40;;;7.25;;
23310;SDS011;11828;51.508;18.118;2023-05-02T14:24:22;11.95;;;6.68;;
23310;SDS011;11828;51.508;18.118;2023-05-02T14:26:48;13.23;;;6.13;;
23310;SDS011;11828;51.508;18.118;2023-05-02T14:29:15;8.65;;;5.47;;
23310;SDS011;11828;51.508;18.118;2023-05-02T14:31:42;12.98;;;6.40;;
23310;SDS011;11828;51.508;18.118;2023-05-02T14:34:10;17.70;;;7.53;;
23310;SDS011;11828;51.508;18.118;2023-05-02T14:36:36;14.82;;;7.57;;
23310;SDS011;11828;51.508;18.118;2023-05-02T14:39:02;15.45;;;7.85;;
23310;SDS011;11828;51.508;18.118;2023-05-02T14:41:28;11.07;;;6.35;;
23310;SDS011;11828;51.508;18.118;2023-05-02T14:43:54;9.73;;;5.95;;
23310;SDS011;11828;51.508;18.118;2023-05-02T14:46:20;12.70;;;6.80;;
23310;SDS011;11828;51.508;18.118;2023-05-02T14:48:46;12.63;;;6.60;;
23310;SDS011;11828;51.508;18.118;2023-05-02T14:51:12;21.77;;;7.40;;
23310;SDS011;11828;51.508;18.118;2023-05-02T14:53:39;14.95;;;6.68;;
23310;SDS011;11828;51.508;18.118;2023-05-02T14:56:10;15.15;;;6.68;;
23310;SDS011;11828;51.508;18.118;2023-05-02T14:58:37;16.38;;;5.85;;
23310;SDS011;11828;51.508;18.118;2023-05-02T15:01:04;13.57;;;5.65;;
23310;SDS011;11828;51.508;18.118;2023-05-02T15:03:30;10.63;;;5.32;;
23310;SDS011;11828;51.508;18.118;2023-05-02T15:05:56;82.63;;;13.38;;
23310;SDS011;11828;51.508;18.118;2023-05-02T15:08:22;16.10;;;5.53;;
23310;SDS011;11828;51.508;18.118;2023-05-02T15:10:49;22.35;;;6.43;;